sensor_id;sensor_type;location;lat;lon;timestamp;P1;durP1;ratioP1;P2;durP2;ratioP2
56760;SDS011;42633;44.494;11.356;2022-09-13T00:01:39;4.80;;;1.67;;
56760;SDS011;42633;44.494;11.356;2022-09-13T00:04:43;3.28;;;1.65;;
56760;SDS011;42633;44.494;11.356;2022-09-13T00:07:47;3.67;;;1.92;;
56760;SDS011;42633;44.494;11.356;2022-09-13T00:10:51;3.95;;;1.77;;
56760;SDS011;42633;44.494;11.356;2022-09-13T00:13:56;8.60;;;4.10;;
56760;SDS011;42633;44.494;11.356;2022-09-13T00:17:01;2.65;;;1.70;;
56760;SDS011;42633;44.494;11.356;2022-09-13T00:20:05;4.32;;;1.50;;
56760;SDS011;42633;44.494;11.356;2022-09-13T00:23:11;4.50;;;2.00;;
56760;SDS011;42633;44.494;11.356;2022-09-13T00:26:16;4.97;;;1.45;;
56760;SDS011;42633;44.494;11.356;2022-09-13T00:29:26;7.82;;;1.42;;
56760;SDS011;42633;44.494;11.356;2022-09-13T00:32:30;17.45;;;2.90;;
56760;SDS011;42633;44.494;11.356;2022-09-13T00:35:36;8.18;;;1.95;;
56760;SDS011;42633;44.494;11.356;2022-09-13T00:38:40;4.05;;;1.77;;
56760;SDS011;42633;44.494;11.356;2022-09-13T00:41:45;4.30;;;1.77;;
56760;SDS011;42633;44.494;11.356;2022-09-13T00:48:04;5.38;;;1.60;;
56760;SDS011;42633;44.494;11.356;2022-09-13T00:51:14;11.40;;;1.83;;
56760;SDS011;42633;44.494;11.356;2022-09-13T00:54:21;3.97;;;1.70;;
56760;SDS011;42633;44.494;11.356;2022-09-13T00:57:36;5.97;;;1.40;;
56760;SDS011;42633;44.494;11.356;2022-09-13T01:00:45;3.28;;;1.50;;
56760;SDS011;42633;44.494;11.356;2022-09-13T01:03:53;3.25;;;1.70;;
56760;SDS011;42633;44.494;11.356;2022-09-13T01:07:09;5.10;;;1.85;;
56760;SDS011;42633;44.494;11.356;2022-09-13T01:10:26;3.05;;;1.33;;
56760;SDS011;42633;44.494;11.356;2022-09-13T01:14:15;4.43;;;1.30;;
56760;SDS011;42633;44.494;11.356;2022-09-13T01:17:32;2.83;;;1.40;;
56760;SDS011;42633;44.494;11.356;2022-09-13T01:28:20;1.30;;;0.98;;
56760;SDS011;42633;44.494;11.356;2022-09-13T01:31:39;2.15;;;1.30;;
56760;SDS011;42633;44.494;11.356;2022-09-13T01:34:59;2.30;;;1.27;;
56760;SDS011;42633;44.494;11.356;2022-09-13T01:42:09;3.63;;;1.30;;
56760;SDS011;42633;44.494;11.356;2022-09-13T01:45:38;3.38;;;1.45;;
56760;SDS011;42633;44.494;11.356;2022-09-13T01:52:14;4.57;;;1.45;;
56760;SDS011;42633;44.494;11.356;2022-09-13T01:59:06;6.15;;;1.40;;
56760;SDS011;42633;44.494;11.356;2022-09-13T02:02:45;3.58;;;1.40;;
56760;SDS011;42633;44.494;11.356;2022-09-13T02:06:19;6.32;;;1.55;;
56760;SDS011;42633;44.494;11.356;2022-09-13T02:09:26;3.75;;;1.50;;
56760;SDS011;42633;44.494;11.356;2022-09-13T02:12:36;5.22;;;1.30;;
56760;SDS011;42633;44.494;11.356;2022-09-13T02:15:47;2.55;;;1.33;;
56760;SDS011;42633;44.494;11.356;2022-09-13T02:19:15;6.97;;;1.75;;
56760;SDS011;42633;44.494;11.356;2022-09-13T02:22:30;3.30;;;1.38;;
56760;SDS011;42633;44.494;11.356;2022-09-13T02:25:37;3.80;;;1.20;;
56760;SDS011;42633;44.494;11.356;2022-09-13T02:28:54;4.78;;;1.60;;
56760;SDS011;42633;44.494;11.356;2022-09-13T02:45:01;5.07;;;1.70;;
56760;SDS011;42633;44.494;11.356;2022-09-13T02:48:09;6.88;;;1.85;;
56760;SDS011;42633;44.494;11.356;2022-09-13T02:51:23;3.38;;;1.20;;
56760;SDS011;42633;44.494;11.356;2022-09-13T02:54:48;1.90;;;1.20;;
56760;SDS011;42633;44.494;11.356;2022-09-13T02:57:58;5.13;;;1.55;;
56760;SDS011;42633;44.494;11.356;2022-09-13T03:01:03;4.00;;;1.33;;
56760;SDS011;42633;44.494;11.356;2022-09-13T03:04:08;5.40;;;1.60;;
56760;SDS011;42633;44.494;11.356;2022-09-13T03:07:12;2.85;;;1.25;;
56760;SDS011;42633;44.494;11.356;2022-09-13T03:10:17;3.30;;;1.25;;
56760;SDS011;42633;44.494;11.356;2022-09-13T03:27:15;8.38;;;1.40;;
56760;SDS011;42633;44.494;11.356;2022-09-13T03:30:24;5.85;;;1.70;;
56760;SDS011;42633;44.494;11.356;2022-09-13T03:33:46;4.85;;;1.45;;
56760;SDS011;42633;44.494;11.356;2022-09-13T03:36:55;6.22;;;1.58;;
56760;SDS011;42633;44.494;11.356;2022-09-13T03:46:50;9.23;;;2.50;;
56760;SDS011;42633;44.494;11.356;2022-09-13T03:49:59;2.45;;;1.50;;
56760;SDS011;42633;44.494;11.356;2022-09-13T03:53:06;5.78;;;2.30;;
56760;SDS011;42633;44.494;11.356;2022-09-13T03:56:14;2.40;;;1.85;;
56760;SDS011;42633;44.494;11.356;2022-09-13T03:59:20;5.97;;;3.30;;
56760;SDS011;42633;44.494;11.356;2022-09-13T04:02:25;11.35;;;2.63;;
56760;SDS011;42633;44.494;11.356;2022-09-13T04:05:29;5.25;;;1.50;;
56760;SDS011;42633;44.494;11.356;2022-09-13T04:08:33;3.63;;;1.25;;
56760;SDS011;42633;44.494;11.356;2022-09-13T04:11:38;6.70;;;2.45;;
56760;SDS011;42633;44.494;11.356;2022-09-13T04:14:43;6.38;;;1.90;;
56760;SDS011;42633;44.494;11.356;2022-09-13T04:17:50;2.45;;;1.30;;
56760;SDS011;42633;44.494;11.356;2022-09-13T04:20:56;5.50;;;1.85;;
56760;SDS011;42633;44.494;11.356;2022-09-13T04:24:01;9.90;;;2.55;;
56760;SDS011;42633;44.494;11.356;2022-09-13T04:27:05;3.72;;;1.60;;
56760;SDS011;42633;44.494;11.356;2022-09-13T04:30:11;5.60;;;1.50;;
56760;SDS011;42633;44.494;11.356;2022-09-13T04:33:16;5.47;;;1.25;;
56760;SDS011;42633;44.494;11.356;2022-09-13T04:36:20;5.07;;;1.08;;
56760;SDS011;42633;44.494;11.356;2022-09-13T04:39:25;4.40;;;1.60;;
56760;SDS011;42633;44.494;11.356;2022-09-13T04:42:29;5.30;;;1.52;;
56760;SDS011;42633;44.494;11.356;2022-09-13T04:45:34;7.35;;;1.70;;
56760;SDS011;42633;44.494;11.356;2022-09-13T04:48:40;6.78;;;1.55;;
56760;SDS011;42633;44.494;11.356;2022-09-13T04:51:45;4.93;;;1.60;;
56760;SDS011;42633;44.494;11.356;2022-09-13T04:54:50;8.43;;;2.50;;
56760;SDS011;42633;44.494;11.356;2022-09-13T04:57:54;6.15;;;1.70;;
56760;SDS011;42633;44.494;11.356;2022-09-13T05:01:00;3.83;;;1.88;;
56760;SDS011;42633;44.494;11.356;2022-09-13T05:04:05;6.43;;;1.65;;
56760;SDS011;42633;44.494;11.356;2022-09-13T05:07:09;5.20;;;1.92;;
56760;SDS011;42633;44.494;11.356;2022-09-13T05:10:13;6.68;;;2.15;;
56760;SDS011;42633;44.494;11.356;2022-09-13T05:13:18;4.68;;;1.55;;
56760;SDS011;42633;44.494;11.356;2022-09-13T05:16:23;4.22;;;1.50;;
56760;SDS011;42633;44.494;11.356;2022-09-13T05:19:33;3.50;;;1.60;;
56760;SDS011;42633;44.494;11.356;2022-09-13T05:22:37;7.85;;;1.90;;
56760;SDS011;42633;44.494;11.356;2022-09-13T05:25:41;5.80;;;2.08;;
56760;SDS011;42633;44.494;11.356;2022-09-13T05:28:45;3.25;;;1.70;;
56760;SDS011;42633;44.494;11.356;2022-09-13T05:31:50;7.63;;;1.80;;
56760;SDS011;42633;44.494;11.356;2022-09-13T05:34:54;8.23;;;2.53;;
56760;SDS011;42633;44.494;11.356;2022-09-13T05:37:58;6.47;;;2.22;;
56760;SDS011;42633;44.494;11.356;2022-09-13T05:41:02;5.47;;;1.90;;
56760;SDS011;42633;44.494;11.356;2022-09-13T05:44:07;9.13;;;2.47;;
56760;SDS011;42633;44.494;11.356;2022-09-13T05:47:12;7.97;;;1.90;;
56760;SDS011;42633;44.494;11.356;2022-09-13T05:50:16;8.75;;;2.53;;
56760;SDS011;42633;44.494;11.356;2022-09-13T05:53:27;5.03;;;1.52;;
56760;SDS011;42633;44.494;11.356;2022-09-13T05:56:31;3.92;;;1.67;;
56760;SDS011;42633;44.494;11.356;2022-09-13T05:59:35;5.05;;;1.95;;
56760;SDS011;42633;44.494;11.356;2022-09-13T06:02:39;6.03;;;3.15;;
56760;SDS011;42633;44.494;11.356;2022-09-13T06:05:44;5.55;;;1.88;;
56760;SDS011;42633;44.494;11.356;2022-09-13T06:08:55;7.93;;;1.80;;
56760;SDS011;42633;44.494;11.356;2022-09-13T06:12:00;6.03;;;2.30;;
56760;SDS011;42633;44.494;11.356;2022-09-13T06:15:04;9.75;;;1.88;;
56760;SDS011;42633;44.494;11.356;2022-09-13T06:18:08;5.25;;;1.75;;
56760;SDS011;42633;44.494;11.356;2022-09-13T06:21:17;7.40;;;2.65;;
56760;SDS011;42633;44.494;11.356;2022-09-13T06:24:22;6.18;;;2.13;;
56760;SDS011;42633;44.494;11.356;2022-09-13T06:27:28;6.40;;;2.15;;
56760;SDS011;42633;44.494;11.356;2022-09-13T06:30:33;7.93;;;2.40;;
56760;SDS011;42633;44.494;11.356;2022-09-13T06:33:38;6.95;;;1.88;;
56760;SDS011;42633;44.494;11.356;2022-09-13T06:36:44;4.60;;;1.45;;
56760;SDS011;42633;44.494;11.356;2022-09-13T06:39:48;4.70;;;1.83;;
56760;SDS011;42633;44.494;11.356;2022-09-13T06:42:51;4.10;;;1.92;;
56760;SDS011;42633;44.494;11.356;2022-09-13T06:46:00;4.65;;;1.80;;
56760;SDS011;42633;44.494;11.356;2022-09-13T06:49:06;6.20;;;2.00;;
56760;SDS011;42633;44.494;11.356;2022-09-13T06:52:11;10.73;;;2.40;;
56760;SDS011;42633;44.494;11.356;2022-09-13T06:55:15;3.05;;;1.67;;
56760;SDS011;42633;44.494;11.356;2022-09-13T06:58:19;6.15;;;2.00;;
56760;SDS011;42633;44.494;11.356;2022-09-13T07:01:34;6.55;;;1.88;;
56760;SDS011;42633;44.494;11.356;2022-09-13T07:04:39;3.60;;;1.70;;
56760;SDS011;42633;44.494;11.356;2022-09-13T07:07:44;4.50;;;1.90;;
56760;SDS011;42633;44.494;11.356;2022-09-13T07:10:48;4.88;;;1.85;;
56760;SDS011;42633;44.494;11.356;2022-09-13T07:13:52;11.43;;;2.33;;
56760;SDS011;42633;44.494;11.356;2022-09-13T07:16:58;7.57;;;2.75;;
56760;SDS011;42633;44.494;11.356;2022-09-13T07:20:03;5.63;;;2.28;;
56760;SDS011;42633;44.494;11.356;2022-09-13T07:23:09;5.00;;;1.80;;
56760;SDS011;42633;44.494;11.356;2022-09-13T07:26:13;9.07;;;2.40;;
56760;SDS011;42633;44.494;11.356;2022-09-13T07:29:19;6.70;;;1.60;;
56760;SDS011;42633;44.494;11.356;2022-09-13T07:32:25;3.00;;;1.73;;
56760;SDS011;42633;44.494;11.356;2022-09-13T07:35:30;6.63;;;2.22;;
56760;SDS011;42633;44.494;11.356;2022-09-13T07:38:34;6.25;;;2.28;;
56760;SDS011;42633;44.494;11.356;2022-09-13T07:41:39;7.05;;;1.65;;
56760;SDS011;42633;44.494;11.356;2022-09-13T07:44:44;7.28;;;1.90;;
56760;SDS011;42633;44.494;11.356;2022-09-13T07:47:48;5.30;;;2.40;;
56760;SDS011;42633;44.494;11.356;2022-09-13T07:51:01;6.85;;;1.90;;
56760;SDS011;42633;44.494;11.356;2022-09-13T07:54:24;5.80;;;2.08;;
56760;SDS011;42633;44.494;11.356;2022-09-13T07:57:28;4.78;;;2.30;;
56760;SDS011;42633;44.494;11.356;2022-09-13T08:00:32;5.60;;;2.22;;
56760;SDS011;42633;44.494;11.356;2022-09-13T08:03:36;9.00;;;3.03;;
56760;SDS011;42633;44.494;11.356;2022-09-13T08:06:41;5.57;;;1.90;;
56760;SDS011;42633;44.494;11.356;2022-09-13T08:09:46;3.63;;;1.98;;
56760;SDS011;42633;44.494;11.356;2022-09-13T08:12:50;6.95;;;2.20;;
56760;SDS011;42633;44.494;11.356;2022-09-13T08:15:54;9.55;;;2.83;;
56760;SDS011;42633;44.494;11.356;2022-09-13T08:19:02;8.40;;;2.33;;
56760;SDS011;42633;44.494;11.356;2022-09-13T08:22:08;7.30;;;3.35;;
56760;SDS011;42633;44.494;11.356;2022-09-13T08:25:12;8.15;;;2.10;;
56760;SDS011;42633;44.494;11.356;2022-09-13T08:28:16;6.60;;;2.28;;
56760;SDS011;42633;44.494;11.356;2022-09-13T08:31:24;6.32;;;2.15;;
56760;SDS011;42633;44.494;11.356;2022-09-13T08:34:29;5.25;;;2.00;;
56760;SDS011;42633;44.494;11.356;2022-09-13T08:37:33;7.80;;;2.10;;
56760;SDS011;42633;44.494;11.356;2022-09-13T08:40:39;7.75;;;2.30;;
56760;SDS011;42633;44.494;11.356;2022-09-13T08:44:09;6.85;;;2.40;;
56760;SDS011;42633;44.494;11.356;2022-09-13T08:47:34;5.35;;;1.98;;
56760;SDS011;42633;44.494;11.356;2022-09-13T08:50:43;5.85;;;2.10;;
56760;SDS011;42633;44.494;11.356;2022-09-13T08:53:48;6.75;;;1.92;;
56760;SDS011;42633;44.494;11.356;2022-09-13T08:56:58;8.35;;;2.13;;
56760;SDS011;42633;44.494;11.356;2022-09-13T09:06:39;12.25;;;2.58;;
56760;SDS011;42633;44.494;11.356;2022-09-13T09:13:25;5.93;;;2.00;;
56760;SDS011;42633;44.494;11.356;2022-09-13T09:16:39;8.98;;;1.98;;
56760;SDS011;42633;44.494;11.356;2022-09-13T09:19:55;7.93;;;2.17;;
56760;SDS011;42633;44.494;11.356;2022-09-13T09:23:13;4.97;;;1.77;;
56760;SDS011;42633;44.494;11.356;2022-09-13T09:29:26;8.35;;;2.33;;
56760;SDS011;42633;44.494;11.356;2022-09-13T09:39:08;6.05;;;2.45;;
56760;SDS011;42633;44.494;11.356;2022-09-13T09:42:16;6.97;;;2.33;;
56760;SDS011;42633;44.494;11.356;2022-09-13T09:45:29;8.02;;;2.50;;
56760;SDS011;42633;44.494;11.356;2022-09-13T09:48:42;6.05;;;1.98;;
56760;SDS011;42633;44.494;11.356;2022-09-13T09:51:50;10.13;;;2.45;;
56760;SDS011;42633;44.494;11.356;2022-09-13T09:54:57;9.10;;;2.42;;
56760;SDS011;42633;44.494;11.356;2022-09-13T09:58:06;6.13;;;2.20;;
56760;SDS011;42633;44.494;11.356;2022-09-13T10:01:16;7.93;;;2.28;;
56760;SDS011;42633;44.494;11.356;2022-09-13T10:04:30;9.57;;;2.60;;
56760;SDS011;42633;44.494;11.356;2022-09-13T10:07:34;11.38;;;3.05;;
56760;SDS011;42633;44.494;11.356;2022-09-13T10:10:39;10.07;;;3.13;;
56760;SDS011;42633;44.494;11.356;2022-09-13T10:13:59;5.85;;;2.90;;
56760;SDS011;42633;44.494;11.356;2022-09-13T10:20:24;9.85;;;2.83;;
56760;SDS011;42633;44.494;11.356;2022-09-13T10:23:29;6.93;;;1.95;;
56760;SDS011;42633;44.494;11.356;2022-09-13T10:26:38;7.80;;;2.63;;
56760;SDS011;42633;44.494;11.356;2022-09-13T10:29:42;9.15;;;2.60;;
56760;SDS011;42633;44.494;11.356;2022-09-13T10:32:54;7.97;;;2.40;;
56760;SDS011;42633;44.494;11.356;2022-09-13T10:36:00;10.40;;;2.67;;
56760;SDS011;42633;44.494;11.356;2022-09-13T10:39:16;7.53;;;2.22;;
56760;SDS011;42633;44.494;11.356;2022-09-13T10:42:24;10.45;;;2.20;;
56760;SDS011;42633;44.494;11.356;2022-09-13T10:45:30;6.90;;;1.83;;
56760;SDS011;42633;44.494;11.356;2022-09-13T10:48:45;6.57;;;2.17;;
56760;SDS011;42633;44.494;11.356;2022-09-13T10:51:50;6.65;;;2.05;;
56760;SDS011;42633;44.494;11.356;2022-09-13T10:54:54;7.70;;;2.53;;
56760;SDS011;42633;44.494;11.356;2022-09-13T10:58:18;7.82;;;2.42;;
56760;SDS011;42633;44.494;11.356;2022-09-13T11:15:19;11.25;;;3.20;;
56760;SDS011;42633;44.494;11.356;2022-09-13T11:42:23;5.82;;;2.83;;
56760;SDS011;42633;44.494;11.356;2022-09-13T11:56:14;4.35;;;2.00;;
56760;SDS011;42633;44.494;11.356;2022-09-13T11:59:53;8.23;;;2.63;;
56760;SDS011;42633;44.494;11.356;2022-09-13T12:09:27;10.00;;;2.55;;
56760;SDS011;42633;44.494;11.356;2022-09-13T12:12:35;7.75;;;3.08;;
56760;SDS011;42633;44.494;11.356;2022-09-13T12:15:40;8.70;;;2.10;;
56760;SDS011;42633;44.494;11.356;2022-09-13T12:18:54;5.68;;;2.15;;
56760;SDS011;42633;44.494;11.356;2022-09-13T12:22:01;9.20;;;2.72;;
56760;SDS011;42633;44.494;11.356;2022-09-13T12:25:22;8.02;;;2.30;;
56760;SDS011;42633;44.494;11.356;2022-09-13T12:28:33;8.40;;;2.45;;
56760;SDS011;42633;44.494;11.356;2022-09-13T12:31:45;5.25;;;2.50;;
56760;SDS011;42633;44.494;11.356;2022-09-13T12:44:58;12.77;;;3.47;;
56760;SDS011;42633;44.494;11.356;2022-09-13T13:01:27;4.05;;;2.22;;
56760;SDS011;42633;44.494;11.356;2022-09-13T13:04:34;7.53;;;2.35;;
56760;SDS011;42633;44.494;11.356;2022-09-13T13:07:39;11.32;;;3.00;;
56760;SDS011;42633;44.494;11.356;2022-09-13T13:10:43;10.23;;;2.45;;
56760;SDS011;42633;44.494;11.356;2022-09-13T13:13:59;11.40;;;4.22;;
56760;SDS011;42633;44.494;11.356;2022-09-13T13:27:35;6.13;;;2.90;;
56760;SDS011;42633;44.494;11.356;2022-09-13T13:30:49;8.82;;;2.40;;
56760;SDS011;42633;44.494;11.356;2022-09-13T13:34:24;7.03;;;2.63;;
56760;SDS011;42633;44.494;11.356;2022-09-13T13:37:30;8.88;;;2.75;;
56760;SDS011;42633;44.494;11.356;2022-09-13T13:40:37;6.13;;;2.35;;
56760;SDS011;42633;44.494;11.356;2022-09-13T13:43:41;6.13;;;2.97;;
56760;SDS011;42633;44.494;11.356;2022-09-13T13:46:46;9.85;;;2.42;;
56760;SDS011;42633;44.494;11.356;2022-09-13T13:49:57;6.10;;;2.80;;
56760;SDS011;42633;44.494;11.356;2022-09-13T13:53:22;7.60;;;2.72;;
56760;SDS011;42633;44.494;11.356;2022-09-13T13:56:45;5.40;;;2.30;;
56760;SDS011;42633;44.494;11.356;2022-09-13T13:59:52;6.13;;;2.60;;
56760;SDS011;42633;44.494;11.356;2022-09-13T14:06:18;6.90;;;2.92;;
56760;SDS011;42633;44.494;11.356;2022-09-13T14:09:28;4.80;;;2.60;;
56760;SDS011;42633;44.494;11.356;2022-09-13T14:16:26;8.52;;;3.13;;
56760;SDS011;42633;44.494;11.356;2022-09-13T14:22:50;5.55;;;2.22;;
56760;SDS011;42633;44.494;11.356;2022-09-13T14:25:57;6.95;;;2.78;;
56760;SDS011;42633;44.494;11.356;2022-09-13T14:29:11;6.63;;;2.72;;
56760;SDS011;42633;44.494;11.356;2022-09-13T14:32:21;4.65;;;2.60;;
56760;SDS011;42633;44.494;11.356;2022-09-13T14:35:36;5.07;;;2.10;;
56760;SDS011;42633;44.494;11.356;2022-09-13T14:38:47;6.97;;;3.03;;
56760;SDS011;42633;44.494;11.356;2022-09-13T14:49:00;5.18;;;2.00;;
56760;SDS011;42633;44.494;11.356;2022-09-13T14:52:44;8.23;;;2.25;;
56760;SDS011;42633;44.494;11.356;2022-09-13T14:55:36;4.90;;;1.90;;
56760;SDS011;42633;44.494;11.356;2022-09-13T14:58:48;7.20;;;3.88;;
56760;SDS011;42633;44.494;11.356;2022-09-13T15:01:55;7.18;;;2.95;;
56760;SDS011;42633;44.494;11.356;2022-09-13T15:05:02;10.55;;;2.33;;
56760;SDS011;42633;44.494;11.356;2022-09-13T15:11:59;10.10;;;3.55;;
56760;SDS011;42633;44.494;11.356;2022-09-13T15:18:34;5.90;;;2.75;;
56760;SDS011;42633;44.494;11.356;2022-09-13T15:21:39;6.63;;;2.67;;
56760;SDS011;42633;44.494;11.356;2022-09-13T15:24:44;5.72;;;2.10;;
56760;SDS011;42633;44.494;11.356;2022-09-13T15:27:51;3.70;;;1.92;;
56760;SDS011;42633;44.494;11.356;2022-09-13T15:30:57;5.78;;;2.20;;
56760;SDS011;42633;44.494;11.356;2022-09-13T15:37:14;6.93;;;2.10;;
56760;SDS011;42633;44.494;11.356;2022-09-13T15:40:19;5.85;;;1.88;;
56760;SDS011;42633;44.494;11.356;2022-09-13T15:43:24;5.90;;;1.92;;
56760;SDS011;42633;44.494;11.356;2022-09-13T15:46:29;4.20;;;1.70;;
56760;SDS011;42633;44.494;11.356;2022-09-13T15:49:34;8.82;;;2.33;;
56760;SDS011;42633;44.494;11.356;2022-09-13T15:52:40;3.40;;;1.92;;
56760;SDS011;42633;44.494;11.356;2022-09-13T15:55:44;4.43;;;2.00;;
56760;SDS011;42633;44.494;11.356;2022-09-13T15:58:49;6.00;;;1.73;;
56760;SDS011;42633;44.494;11.356;2022-09-13T16:01:53;6.35;;;2.60;;
56760;SDS011;42633;44.494;11.356;2022-09-13T16:04:58;7.20;;;1.90;;
56760;SDS011;42633;44.494;11.356;2022-09-13T16:08:02;4.75;;;2.67;;
56760;SDS011;42633;44.494;11.356;2022-09-13T16:11:06;6.18;;;2.83;;
56760;SDS011;42633;44.494;11.356;2022-09-13T16:14:10;7.85;;;3.50;;
56760;SDS011;42633;44.494;11.356;2022-09-13T16:17:19;4.75;;;2.33;;
56760;SDS011;42633;44.494;11.356;2022-09-13T16:20:24;4.22;;;2.50;;
56760;SDS011;42633;44.494;11.356;2022-09-13T16:23:30;8.90;;;3.17;;
56760;SDS011;42633;44.494;11.356;2022-09-13T16:26:34;7.15;;;3.50;;
56760;SDS011;42633;44.494;11.356;2022-09-13T16:29:39;9.25;;;3.00;;
56760;SDS011;42633;44.494;11.356;2022-09-13T16:32:47;7.13;;;2.83;;
56760;SDS011;42633;44.494;11.356;2022-09-13T16:35:52;7.20;;;3.45;;
56760;SDS011;42633;44.494;11.356;2022-09-13T16:38:56;7.28;;;2.88;;
56760;SDS011;42633;44.494;11.356;2022-09-13T16:42:00;4.65;;;2.85;;
56760;SDS011;42633;44.494;11.356;2022-09-13T16:45:05;8.25;;;3.45;;
56760;SDS011;42633;44.494;11.356;2022-09-13T16:48:09;8.73;;;2.40;;
56760;SDS011;42633;44.494;11.356;2022-09-13T16:51:14;9.65;;;3.63;;
56760;SDS011;42633;44.494;11.356;2022-09-13T16:54:21;8.73;;;2.70;;
56760;SDS011;42633;44.494;11.356;2022-09-13T16:57:25;15.40;;;6.30;;
56760;SDS011;42633;44.494;11.356;2022-09-13T17:00:29;10.23;;;3.65;;
56760;SDS011;42633;44.494;11.356;2022-09-13T17:03:33;7.03;;;3.33;;
56760;SDS011;42633;44.494;11.356;2022-09-13T17:06:38;7.65;;;2.60;;
56760;SDS011;42633;44.494;11.356;2022-09-13T17:09:42;8.50;;;2.58;;
56760;SDS011;42633;44.494;11.356;2022-09-13T17:12:47;5.45;;;2.63;;
56760;SDS011;42633;44.494;11.356;2022-09-13T17:15:51;9.27;;;3.95;;
56760;SDS011;42633;44.494;11.356;2022-09-13T17:18:56;9.30;;;4.28;;
56760;SDS011;42633;44.494;11.356;2022-09-13T17:22:02;9.43;;;3.10;;
56760;SDS011;42633;44.494;11.356;2022-09-13T17:25:10;10.65;;;2.58;;
56760;SDS011;42633;44.494;11.356;2022-09-13T17:28:15;8.35;;;2.75;;
56760;SDS011;42633;44.494;11.356;2022-09-13T17:31:19;9.68;;;2.53;;
56760;SDS011;42633;44.494;11.356;2022-09-13T17:34:24;7.75;;;3.38;;
56760;SDS011;42633;44.494;11.356;2022-09-13T17:37:28;9.13;;;3.20;;
56760;SDS011;42633;44.494;11.356;2022-09-13T17:40:33;6.47;;;2.53;;
56760;SDS011;42633;44.494;11.356;2022-09-13T17:43:38;3.70;;;2.45;;
56760;SDS011;42633;44.494;11.356;2022-09-13T17:46:43;6.28;;;3.58;;
56760;SDS011;42633;44.494;11.356;2022-09-13T17:49:47;8.48;;;2.83;;
56760;SDS011;42633;44.494;11.356;2022-09-13T17:52:51;6.78;;;2.90;;
56760;SDS011;42633;44.494;11.356;2022-09-13T17:55:55;9.25;;;3.30;;
56760;SDS011;42633;44.494;11.356;2022-09-13T17:59:03;11.10;;;3.25;;
56760;SDS011;42633;44.494;11.356;2022-09-13T18:02:08;8.77;;;2.95;;
56760;SDS011;42633;44.494;11.356;2022-09-13T18:05:13;8.93;;;3.05;;
56760;SDS011;42633;44.494;11.356;2022-09-13T18:08:17;6.32;;;2.05;;
56760;SDS011;42633;44.494;11.356;2022-09-13T18:11:23;6.72;;;2.97;;
56760;SDS011;42633;44.494;11.356;2022-09-13T18:14:28;8.07;;;3.30;;
56760;SDS011;42633;44.494;11.356;2022-09-13T18:17:33;7.13;;;3.00;;
56760;SDS011;42633;44.494;11.356;2022-09-13T18:20:43;7.53;;;2.80;;
56760;SDS011;42633;44.494;11.356;2022-09-13T18:23:49;8.80;;;3.20;;
56760;SDS011;42633;44.494;11.356;2022-09-13T18:27:00;11.93;;;7.15;;
56760;SDS011;42633;44.494;11.356;2022-09-13T18:30:05;18.80;;;8.57;;
56760;SDS011;42633;44.494;11.356;2022-09-13T18:33:10;12.10;;;6.20;;
56760;SDS011;42633;44.494;11.356;2022-09-13T18:36:16;11.07;;;6.18;;
56760;SDS011;42633;44.494;11.356;2022-09-13T18:39:21;13.25;;;8.60;;
56760;SDS011;42633;44.494;11.356;2022-09-13T18:42:25;14.00;;;7.18;;
56760;SDS011;42633;44.494;11.356;2022-09-13T18:45:29;9.98;;;4.63;;
56760;SDS011;42633;44.494;11.356;2022-09-13T18:48:34;7.13;;;4.30;;
56760;SDS011;42633;44.494;11.356;2022-09-13T18:51:43;14.40;;;3.15;;
56760;SDS011;42633;44.494;11.356;2022-09-13T18:54:49;12.35;;;3.58;;
56760;SDS011;42633;44.494;11.356;2022-09-13T18:57:53;9.52;;;3.53;;
56760;SDS011;42633;44.494;11.356;2022-09-13T19:04:14;9.73;;;6.97;;
56760;SDS011;42633;44.494;11.356;2022-09-13T19:07:20;12.43;;;6.18;;
56760;SDS011;42633;44.494;11.356;2022-09-13T19:10:25;6.15;;;3.22;;
56760;SDS011;42633;44.494;11.356;2022-09-13T19:13:35;7.10;;;4.43;;
56760;SDS011;42633;44.494;11.356;2022-09-13T19:16:39;12.43;;;5.38;;
56760;SDS011;42633;44.494;11.356;2022-09-13T19:19:46;8.80;;;3.63;;
56760;SDS011;42633;44.494;11.356;2022-09-13T19:22:59;11.68;;;5.38;;
56760;SDS011;42633;44.494;11.356;2022-09-13T19:26:07;9.70;;;3.75;;
56760;SDS011;42633;44.494;11.356;2022-09-13T19:29:14;8.45;;;3.25;;
56760;SDS011;42633;44.494;11.356;2022-09-13T19:32:19;7.00;;;2.97;;
56760;SDS011;42633;44.494;11.356;2022-09-13T19:35:24;10.10;;;2.97;;
56760;SDS011;42633;44.494;11.356;2022-09-13T19:38:30;7.23;;;3.60;;
56760;SDS011;42633;44.494;11.356;2022-09-13T19:41:35;11.05;;;5.32;;
56760;SDS011;42633;44.494;11.356;2022-09-13T19:44:40;6.90;;;3.25;;
56760;SDS011;42633;44.494;11.356;2022-09-13T19:47:48;7.85;;;4.22;;
56760;SDS011;42633;44.494;11.356;2022-09-13T19:50:54;13.43;;;4.78;;
56760;SDS011;42633;44.494;11.356;2022-09-13T19:53:58;13.07;;;6.20;;
56760;SDS011;42633;44.494;11.356;2022-09-13T19:57:03;8.48;;;4.30;;
56760;SDS011;42633;44.494;11.356;2022-09-13T20:00:10;9.15;;;5.45;;
56760;SDS011;42633;44.494;11.356;2022-09-13T20:03:14;5.28;;;3.55;;
56760;SDS011;42633;44.494;11.356;2022-09-13T20:06:19;8.85;;;4.38;;
56760;SDS011;42633;44.494;11.356;2022-09-13T20:09:27;7.10;;;3.40;;
56760;SDS011;42633;44.494;11.356;2022-09-13T20:12:33;8.37;;;3.37;;
56760;SDS011;42633;44.494;11.356;2022-09-13T20:15:40;9.82;;;3.72;;
56760;SDS011;42633;44.494;11.356;2022-09-13T20:18:44;6.72;;;3.17;;
56760;SDS011;42633;44.494;11.356;2022-09-13T20:21:49;5.68;;;3.17;;
56760;SDS011;42633;44.494;11.356;2022-09-13T20:24:54;7.50;;;3.30;;
56760;SDS011;42633;44.494;11.356;2022-09-13T20:27:58;13.98;;;3.45;;
56760;SDS011;42633;44.494;11.356;2022-09-13T20:31:03;7.97;;;3.30;;
56760;SDS011;42633;44.494;11.356;2022-09-13T20:34:13;7.32;;;3.28;;
56760;SDS011;42633;44.494;11.356;2022-09-13T20:37:23;9.02;;;3.30;;
56760;SDS011;42633;44.494;11.356;2022-09-13T20:40:27;5.32;;;3.17;;
56760;SDS011;42633;44.494;11.356;2022-09-13T20:43:32;6.20;;;2.80;;
56760;SDS011;42633;44.494;11.356;2022-09-13T20:46:39;15.75;;;4.53;;
56760;SDS011;42633;44.494;11.356;2022-09-13T20:49:49;6.18;;;3.17;;
56760;SDS011;42633;44.494;11.356;2022-09-13T20:52:53;4.63;;;2.58;;
56760;SDS011;42633;44.494;11.356;2022-09-13T20:56:07;11.85;;;4.20;;
56760;SDS011;42633;44.494;11.356;2022-09-13T20:59:13;6.53;;;3.67;;
56760;SDS011;42633;44.494;11.356;2022-09-13T21:02:18;7.28;;;3.40;;
56760;SDS011;42633;44.494;11.356;2022-09-13T21:05:22;6.50;;;3.13;;
56760;SDS011;42633;44.494;11.356;2022-09-13T21:08:27;10.68;;;3.88;;
56760;SDS011;42633;44.494;11.356;2022-09-13T21:14:48;11.77;;;3.80;;
56760;SDS011;42633;44.494;11.356;2022-09-13T21:17:53;9.30;;;3.55;;
56760;SDS011;42633;44.494;11.356;2022-09-13T21:20:58;10.13;;;5.35;;
56760;SDS011;42633;44.494;11.356;2022-09-13T21:24:05;6.72;;;3.67;;
56760;SDS011;42633;44.494;11.356;2022-09-13T21:27:22;10.00;;;3.55;;
56760;SDS011;42633;44.494;11.356;2022-09-13T21:30:26;5.72;;;3.38;;
56760;SDS011;42633;44.494;11.356;2022-09-13T21:33:31;9.20;;;3.25;;
56760;SDS011;42633;44.494;11.356;2022-09-13T21:36:36;7.10;;;3.55;;
56760;SDS011;42633;44.494;11.356;2022-09-13T21:39:40;4.60;;;2.45;;
56760;SDS011;42633;44.494;11.356;2022-09-13T21:42:45;4.07;;;2.17;;
56760;SDS011;42633;44.494;11.356;2022-09-13T21:45:56;4.20;;;2.47;;
56760;SDS011;42633;44.494;11.356;2022-09-13T21:49:07;6.93;;;2.30;;
56760;SDS011;42633;44.494;11.356;2022-09-13T21:52:14;4.63;;;1.88;;
56760;SDS011;42633;44.494;11.356;2022-09-13T21:55:29;5.47;;;1.95;;